sensor_id;sensor_type;location;lat;lon;timestamp;pressure;altitude;pressure_sealevel;temperature;humidity
41596;BME280;27283;52.504;13.358;2023-03-03T00:01:36;101961.16;;;-1.34;100.00
41596;BME280;27283;52.504;13.358;2023-03-03T00:04:09;101963.91;;;-1.13;100.00
41596;BME280;27283;52.504;13.358;2023-03-03T00:06:44;101968.78;;;-1.26;100.00
41596;BME280;27283;52.504;13.358;2023-03-03T00:09:16;101963.56;;;-1.51;100.00
41596;BME280;27283;52.504;13.358;2023-03-03T00:11:53;101966.50;;;-1.35;100.00
41596;BME280;27283;52.504;13.358;2023-03-03T00:14:29;101974.22;;;-1.31;100.00
41596;BME280;27283;52.504;13.358;2023-03-03T00:17:16;101968.41;;;-1.17;100.00
41596;BME280;27283;52.504;13.358;2023-03-03T00:19:50;101971.69;;;-1.10;100.00
41596;BME280;27283;52.504;13.358;2023-03-03T00:22:29;101966.38;;;-1.32;100.00
41596;BME280;27283;52.504;13.358;2023-03-03T00:25:23;101963.63;;;-1.29;100.00
41596;BME280;27283;52.504;13.358;2023-03-03T00:28:00;101953.38;;;-0.93;100.00
41596;BME280;27283;52.504;13.358;2023-03-03T00:30:37;101950.34;;;-0.83;100.00
41596;BME280;27283;52.504;13.358;2023-03-03T00:33:21;101947.25;;;-0.93;100.00
41596;BME280;27283;52.504;13.358;2023-03-03T00:36:19;101938.81;;;-1.03;100.00
41596;BME280;27283;52.504;13.358;2023-03-03T00:39:10;101947.25;;;-1.37;100.00
41596;BME280;27283;52.504;13.358;2023-03-03T00:41:44;101953.66;;;-1.22;100.00
41596;BME280;27283;52.504;13.358;2023-03-03T00:44:38;101947.53;;;-1.23;100.00
41596;BME280;27283;52.504;13.358;2023-03-03T00:47:34;101940.53;;;-1.24;100.00
41596;BME280;27283;52.504;13.358;2023-03-03T00:50:26;101942.88;;;-1.38;100.00
41596;BME280;27283;52.504;13.358;2023-03-03T00:53:05;101938.31;;;-1.57;100.00
41596;BME280;27283;52.504;13.358;2023-03-03T00:55:41;101940.84;;;-1.32;100.00
41596;BME280;27283;52.504;13.358;2023-03-03T00:58:28;101939.94;;;-1.31;100.00
41596;BME280;27283;52.504;13.358;2023-03-03T01:01:01;101933.34;;;-1.43;100.00
41596;BME280;27283;52.504;13.358;2023-03-03T01:03:34;101934.63;;;-1.53;100.00
41596;BME280;27283;52.504;13.358;2023-03-03T01:06:06;101940.22;;;-1.38;100.00
41596;BME280;27283;52.504;13.358;2023-03-03T01:08:39;101922.38;;;-1.32;100.00
41596;BME280;27283;52.504;13.358;2023-03-03T01:11:22;101925.88;;;-1.31;100.00
41596;BME280;27283;52.504;13.358;2023-03-03T01:13:56;101928.13;;;-1.00;100.00
41596;BME280;27283;52.504;13.358;2023-03-03T01:16:28;101934.06;;;-0.93;100.00
41596;BME280;27283;52.504;13.358;2023-03-03T01:19:00;101925.44;;;-0.98;100.00
41596;BME280;27283;52.504;13.358;2023-03-03T01:21:33;101930.84;;;-1.23;100.00
41596;BME280;27283;52.504;13.358;2023-03-03T01:24:05;101920.91;;;-1.17;100.00
41596;BME280;27283;52.504;13.358;2023-03-03T01:26:40;101928.19;;;-1.01;100.00
41596;BME280;27283;52.504;13.358;2023-03-03T01:29:12;101920.28;;;-1.46;100.00
41596;BME280;27283;52.504;13.358;2023-03-03T01:31:46;101913.66;;;-1.34;100.00
41596;BME280;27283;52.504;13.358;2023-03-03T01:34:18;101913.84;;;-1.38;100.00
41596;BME280;27283;52.504;13.358;2023-03-03T01:36:51;101908.13;;;-1.50;100.00
41596;BME280;27283;52.504;13.358;2023-03-03T01:39:22;101901.81;;;-1.23;100.00
41596;BME280;27283;52.504;13.358;2023-03-03T01:41:57;101896.59;;;-1.03;100.00
41596;BME280;27283;52.504;13.358;2023-03-03T01:44:29;101890.78;;;-1.55;100.00
41596;BME280;27283;52.504;13.358;2023-03-03T01:47:04;101890.00;;;-1.59;100.00
41596;BME280;27283;52.504;13.358;2023-03-03T01:49:41;101893.16;;;-1.49;100.00
41596;BME280;27283;52.504;13.358;2023-03-03T01:52:22;101889.22;;;-1.39;100.00
41596;BME280;27283;52.504;13.358;2023-03-03T01:54:59;101883.34;;;-1.46;100.00
41596;BME280;27283;52.504;13.358;2023-03-03T01:57:37;101882.66;;;-1.29;100.00
41596;BME280;27283;52.504;13.358;2023-03-03T02:00:12;101887.69;;;-1.22;100.00
41596;BME280;27283;52.504;13.358;2023-03-03T02:02:45;101880.63;;;-1.00;100.00
41596;BME280;27283;52.504;13.358;2023-03-03T02:05:18;101894.56;;;-1.40;100.00
41596;BME280;27283;52.504;13.358;2023-03-03T02:07:51;101884.84;;;-1.62;100.00
41596;BME280;27283;52.504;13.358;2023-03-03T02:10:23;101884.00;;;-1.63;100.00
41596;BME280;27283;52.504;13.358;2023-03-03T02:12:58;101898.00;;;-1.38;100.00
41596;BME280;27283;52.504;13.358;2023-03-03T02:15:32;101913.97;;;-1.65;100.00
41596;BME280;27283;52.504;13.358;2023-03-03T02:18:09;101905.75;;;-1.34;100.00
41596;BME280;27283;52.504;13.358;2023-03-03T02:20:49;101897.66;;;-1.29;100.00
41596;BME280;27283;52.504;13.358;2023-03-03T02:23:29;101900.69;;;-1.62;100.00
41596;BME280;27283;52.504;13.358;2023-03-03T02:26:09;101907.38;;;-1.53;100.00
41596;BME280;27283;52.504;13.358;2023-03-03T02:28:43;101899.78;;;-1.61;100.00
41596;BME280;27283;52.504;13.358;2023-03-03T02:31:17;101911.44;;;-1.22;100.00
41596;BME280;27283;52.504;13.358;2023-03-03T02:33:51;101915.34;;;-1.55;100.00
41596;BME280;27283;52.504;13.358;2023-03-03T02:36:25;101909.97;;;-1.75;100.00
41596;BME280;27283;52.504;13.358;2023-03-03T02:39:02;101905.03;;;-1.85;100.00
41596;BME280;27283;52.504;13.358;2023-03-03T02:41:41;101905.94;;;-1.86;100.00
41596;BME280;27283;52.504;13.358;2023-03-03T02:44:17;101902.19;;;-2.02;100.00
41596;BME280;27283;52.504;13.358;2023-03-03T02:46:59;101902.06;;;-1.99;100.00
41596;BME280;27283;52.504;13.358;2023-03-03T02:49:34;101908.50;;;-1.83;100.00
41596;BME280;27283;52.504;13.358;2023-03-03T02:52:09;101906.88;;;-1.63;100.00
41596;BME280;27283;52.504;13.358;2023-03-03T02:54:43;101910.38;;;-1.86;100.00
41596;BME280;27283;52.504;13.358;2023-03-03T02:57:17;101902.47;;;-1.86;100.00
41596;BME280;27283;52.504;13.358;2023-03-03T02:59:50;101908.72;;;-1.89;100.00
41596;BME280;27283;52.504;13.358;2023-03-03T03:02:22;101909.34;;;-1.58;100.00
41596;BME280;27283;52.504;13.358;2023-03-03T03:04:55;101917.88;;;-1.75;100.00
41596;BME280;27283;52.504;13.358;2023-03-03T03:07:27;101909.88;;;-1.96;100.00
41596;BME280;27283;52.504;13.358;2023-03-03T03:09:59;101923.16;;;-1.99;100.00
41596;BME280;27283;52.504;13.358;2023-03-03T03:12:34;101904.53;;;-1.94;100.00
41596;BME280;27283;52.504;13.358;2023-03-03T03:15:08;101914.09;;;-1.92;100.00
41596;BME280;27283;52.504;13.358;2023-03-03T03:17:40;101919.41;;;-1.93;100.00
41596;BME280;27283;52.504;13.358;2023-03-03T03:20:13;101927.28;;;-1.68;100.00
41596;BME280;27283;52.504;13.358;2023-03-03T03:22:46;101928.41;;;-2.23;100.00
41596;BME280;27283;52.504;13.358;2023-03-03T03:25:19;101935.66;;;-1.81;100.00
41596;BME280;27283;52.504;13.358;2023-03-03T03:27:54;101940.34;;;-1.89;100.00
41596;BME280;27283;52.504;13.358;2023-03-03T03:30:27;101929.06;;;-2.18;100.00
41596;BME280;27283;52.504;13.358;2023-03-03T03:32:59;101931.81;;;-2.21;100.00
41596;BME280;27283;52.504;13.358;2023-03-03T03:35:32;101932.94;;;-2.03;100.00
41596;BME280;27283;52.504;13.358;2023-03-03T03:38:05;101938.03;;;-2.22;100.00
41596;BME280;27283;52.504;13.358;2023-03-03T03:40:38;101938.38;;;-2.33;100.00
41596;BME280;27283;52.504;13.358;2023-03-03T03:43:12;101944.47;;;-2.30;100.00
41596;BME280;27283;52.504;13.358;2023-03-03T03:45:45;101931.09;;;-2.24;100.00
41596;BME280;27283;52.504;13.358;2023-03-03T03:48:17;101925.44;;;-2.14;100.00
41596;BME280;27283;52.504;13.358;2023-03-03T03:50:50;101932.44;;;-2.38;100.00
41596;BME280;27283;52.504;13.358;2023-03-03T03:53:22;101928.44;;;-2.24;100.00
41596;BME280;27283;52.504;13.358;2023-03-03T03:55:55;101917.53;;;-2.14;100.00
41596;BME280;27283;52.504;13.358;2023-03-03T03:58:29;101923.91;;;-2.21;100.00
41596;BME280;27283;52.504;13.358;2023-03-03T04:01:03;101914.47;;;-2.26;100.00
41596;BME280;27283;52.504;13.358;2023-03-03T04:03:35;101900.22;;;-2.21;100.00
41596;BME280;27283;52.504;13.358;2023-03-03T04:06:07;101912.53;;;-2.21;100.00
41596;BME280;27283;52.504;13.358;2023-03-03T04:08:39;101903.06;;;-2.27;100.00
41596;BME280;27283;52.504;13.358;2023-03-03T04:11:12;101907.47;;;-2.27;100.00
41596;BME280;27283;52.504;13.358;2023-03-03T04:13:59;101907.78;;;-2.11;100.00
41596;BME280;27283;52.504;13.358;2023-03-03T04:16:34;101899.63;;;-2.54;100.00
41596;BME280;27283;52.504;13.358;2023-03-03T04:19:06;101899.91;;;-2.62;100.00
41596;BME280;27283;52.504;13.358;2023-03-03T04:21:38;101900.81;;;-2.38;100.00
41596;BME280;27283;52.504;13.358;2023-03-03T04:24:10;101900.41;;;-2.52;100.00
41596;BME280;27283;52.504;13.358;2023-03-03T04:26:42;101894.84;;;-2.68;100.00
41596;BME280;27283;52.504;13.358;2023-03-03T04:29:17;101897.78;;;-2.52;100.00
41596;BME280;27283;52.504;13.358;2023-03-03T04:31:50;101897.97;;;-2.32;100.00
41596;BME280;27283;52.504;13.358;2023-03-03T04:34:23;101898.00;;;-2.08;100.00
41596;BME280;27283;52.504;13.358;2023-03-03T04:36:58;101899.56;;;-2.27;100.00
41596;BME280;27283;52.504;13.358;2023-03-03T04:39:31;101897.72;;;-2.49;100.00
41596;BME280;27283;52.504;13.358;2023-03-03T04:42:04;101890.09;;;-2.33;100.00
41596;BME280;27283;52.504;13.358;2023-03-03T04:44:38;101885.06;;;-2.14;100.00
41596;BME280;27283;52.504;13.358;2023-03-03T04:47:11;101894.22;;;-2.01;100.00
41596;BME280;27283;52.504;13.358;2023-03-03T04:49:46;101904.13;;;-1.84;100.00
41596;BME280;27283;52.504;13.358;2023-03-03T04:52:19;101897.50;;;-2.19;100.00
41596;BME280;27283;52.504;13.358;2023-03-03T04:54:51;101892.53;;;-2.27;100.00
41596;BME280;27283;52.504;13.358;2023-03-03T04:57:23;101898.63;;;-2.25;100.00
41596;BME280;27283;52.504;13.358;2023-03-03T04:59:59;101900.88;;;-2.14;100.00
41596;BME280;27283;52.504;13.358;2023-03-03T05:02:32;101903.72;;;-2.20;100.00
41596;BME280;27283;52.504;13.358;2023-03-03T05:05:06;101892.66;;;-2.06;100.00
41596;BME280;27283;52.504;13.358;2023-03-03T05:07:55;101895.19;;;-2.03;100.00
41596;BME280;27283;52.504;13.358;2023-03-03T05:10:27;101889.31;;;-2.11;100.00
41596;BME280;27283;52.504;13.358;2023-03-03T05:13:02;101884.53;;;-2.00;100.00
41596;BME280;27283;52.504;13.358;2023-03-03T05:15:37;101886.63;;;-2.34;100.00
41596;BME280;27283;52.504;13.358;2023-03-03T05:18:11;101875.72;;;-2.48;100.00
41596;BME280;27283;52.504;13.358;2023-03-03T05:20:43;101884.31;;;-2.43;100.00
41596;BME280;27283;52.504;13.358;2023-03-03T05:23:15;101878.63;;;-2.30;100.00
41596;BME280;27283;52.504;13.358;2023-03-03T05:25:48;101875.97;;;-2.07;100.00
41596;BME280;27283;52.504;13.358;2023-03-03T05:28:20;101883.50;;;-1.96;100.00
41596;BME280;27283;52.504;13.358;2023-03-03T05:30:55;101881.75;;;-2.21;100.00
41596;BME280;27283;52.504;13.358;2023-03-03T05:33:27;101886.41;;;-2.27;100.00
41596;BME280;27283;52.504;13.358;2023-03-03T05:35:59;101891.84;;;-2.32;100.00
41596;BME280;27283;52.504;13.358;2023-03-03T05:38:32;101896.97;;;-2.04;100.00
41596;BME280;27283;52.504;13.358;2023-03-03T05:41:04;101901.69;;;-1.88;100.00
41596;BME280;27283;52.504;13.358;2023-03-03T05:43:37;101910.03;;;-1.77;100.00
41596;BME280;27283;52.504;13.358;2023-03-03T05:46:13;101907.84;;;-1.89;100.00
41596;BME280;27283;52.504;13.358;2023-03-03T05:48:46;101917.25;;;-1.82;100.00
41596;BME280;27283;52.504;13.358;2023-03-03T05:51:18;101918.13;;;-1.82;100.00
41596;BME280;27283;52.504;13.358;2023-03-03T05:53:50;101929.81;;;-1.65;100.00
41596;BME280;27283;52.504;13.358;2023-03-03T05:56:24;101913.81;;;-1.84;100.00
41596;BME280;27283;52.504;13.358;2023-03-03T06:01:56;101917.91;;;-1.99;100.00
41596;BME280;27283;52.504;13.358;2023-03-03T06:04:29;101917.41;;;-1.63;100.00
41596;BME280;27283;52.504;13.358;2023-03-03T06:07:01;101919.72;;;-1.77;100.00
41596;BME280;27283;52.504;13.358;2023-03-03T06:09:33;101927.72;;;-2.04;100.00
41596;BME280;27283;52.504;13.358;2023-03-03T06:12:06;101915.94;;;-1.94;100.00
41596;BME280;27283;52.504;13.358;2023-03-03T06:14:38;101914.69;;;-1.84;100.00
41596;BME280;27283;52.504;13.358;2023-03-03T06:17:12;101927.22;;;-2.14;100.00
41596;BME280;27283;52.504;13.358;2023-03-03T06:19:45;101920.28;;;-2.17;100.00
41596;BME280;27283;52.504;13.358;2023-03-03T06:22:16;101920.75;;;-2.05;100.00
41596;BME280;27283;52.504;13.358;2023-03-03T06:24:48;101921.84;;;-2.11;100.00
41596;BME280;27283;52.504;13.358;2023-03-03T06:27:20;101936.41;;;-2.26;100.00
41596;BME280;27283;52.504;13.358;2023-03-03T06:29:52;101933.88;;;-2.04;100.00
41596;BME280;27283;52.504;13.358;2023-03-03T06:32:27;101942.75;;;-2.32;100.00
41596;BME280;27283;52.504;13.358;2023-03-03T06:34:58;101941.50;;;-2.21;100.00
41596;BME280;27283;52.504;13.358;2023-03-03T06:37:30;101934.72;;;-2.03;100.00
41596;BME280;27283;52.504;13.358;2023-03-03T06:40:03;101939.03;;;-2.01;100.00
41596;BME280;27283;52.504;13.358;2023-03-03T06:42:35;101938.28;;;-2.04;100.00
41596;BME280;27283;52.504;13.358;2023-03-03T06:45:08;101936.84;;;-2.38;100.00
41596;BME280;27283;52.504;13.358;2023-03-03T06:47:42;101929.78;;;-2.12;100.00
41596;BME280;27283;52.504;13.358;2023-03-03T06:50:17;101937.25;;;-2.00;100.00
41596;BME280;27283;52.504;13.358;2023-03-03T06:53:00;101944.78;;;-1.66;100.00
41596;BME280;27283;52.504;13.358;2023-03-03T06:55:33;101940.88;;;-2.28;100.00
41596;BME280;27283;52.504;13.358;2023-03-03T06:58:11;101951.84;;;-2.15;100.00
41596;BME280;27283;52.504;13.358;2023-03-03T07:00:49;101960.00;;;-2.23;100.00
41596;BME280;27283;52.504;13.358;2023-03-03T07:03:31;101971.19;;;-1.91;100.00
41596;BME280;27283;52.504;13.358;2023-03-03T07:06:20;101963.22;;;-2.15;100.00
41596;BME280;27283;52.504;13.358;2023-03-03T07:08:54;101970.94;;;-2.34;100.00
41596;BME280;27283;52.504;13.358;2023-03-03T07:11:26;101971.06;;;-2.13;100.00
41596;BME280;27283;52.504;13.358;2023-03-03T07:13:58;101956.03;;;-2.09;100.00
41596;BME280;27283;52.504;13.358;2023-03-03T07:16:30;101964.34;;;-1.97;100.00
41596;BME280;27283;52.504;13.358;2023-03-03T07:19:16;101964.19;;;-1.92;100.00
41596;BME280;27283;52.504;13.358;2023-03-03T07:21:51;101977.97;;;-2.09;100.00
41596;BME280;27283;52.504;13.358;2023-03-03T07:24:26;101981.50;;;-2.10;100.00
41596;BME280;27283;52.504;13.358;2023-03-03T07:27:00;101971.75;;;-2.06;100.00
41596;BME280;27283;52.504;13.358;2023-03-03T07:29:37;101987.16;;;-1.70;100.00
41596;BME280;27283;52.504;13.358;2023-03-03T07:32:23;101979.88;;;-1.64;100.00
41596;BME280;27283;52.504;13.358;2023-03-03T07:34:59;101989.63;;;-2.16;100.00
41596;BME280;27283;52.504;13.358;2023-03-03T07:37:36;101982.34;;;-2.08;100.00
41596;BME280;27283;52.504;13.358;2023-03-03T07:40:32;101995.50;;;-1.83;100.00
41596;BME280;27283;52.504;13.358;2023-03-03T07:43:33;101987.75;;;-1.87;100.00
41596;BME280;27283;52.504;13.358;2023-03-03T07:46:21;101995.28;;;-1.76;100.00
41596;BME280;27283;52.504;13.358;2023-03-03T07:48:57;101995.53;;;-1.84;100.00
41596;BME280;27283;52.504;13.358;2023-03-03T07:51:37;101998.72;;;-1.74;100.00
41596;BME280;27283;52.504;13.358;2023-03-03T07:54:28;102004.38;;;-1.60;100.00
41596;BME280;27283;52.504;13.358;2023-03-03T07:57:13;102004.81;;;-1.49;100.00
41596;BME280;27283;52.504;13.358;2023-03-03T07:59:47;101999.94;;;-1.59;100.00
41596;BME280;27283;52.504;13.358;2023-03-03T08:02:37;102010.75;;;-1.44;100.00
41596;BME280;27283;52.504;13.358;2023-03-03T08:05:29;102004.88;;;-1.50;100.00
41596;BME280;27283;52.504;13.358;2023-03-03T08:08:20;101996.66;;;-1.19;100.00
41596;BME280;27283;52.504;13.358;2023-03-03T08:10:58;101998.56;;;-1.46;100.00
41596;BME280;27283;52.504;13.358;2023-03-03T08:13:36;102001.69;;;-1.84;100.00
41596;BME280;27283;52.504;13.358;2023-03-03T08:16:27;102009.38;;;-1.77;100.00
41596;BME280;27283;52.504;13.358;2023-03-03T08:19:03;101978.81;;;-2.08;100.00
41596;BME280;27283;52.504;13.358;2023-03-03T08:21:36;101989.06;;;-1.99;100.00
41596;BME280;27283;52.504;13.358;2023-03-03T08:24:11;101999.53;;;-2.23;100.00
41596;BME280;27283;52.504;13.358;2023-03-03T08:26:43;101998.34;;;-1.89;100.00
41596;BME280;27283;52.504;13.358;2023-03-03T08:29:15;101994.13;;;-1.69;100.00
41596;BME280;27283;52.504;13.358;2023-03-03T08:31:47;101998.47;;;-1.21;100.00
41596;BME280;27283;52.504;13.358;2023-03-03T08:34:19;101997.22;;;-1.11;100.00
41596;BME280;27283;52.504;13.358;2023-03-03T08:36:53;101995.00;;;-1.69;100.00
41596;BME280;27283;52.504;13.358;2023-03-03T08:39:29;101994.75;;;-1.39;100.00
41596;BME280;27283;52.504;13.358;2023-03-03T08:42:01;102004.00;;;-1.27;100.00
41596;BME280;27283;52.504;13.358;2023-03-03T08:44:33;102004.75;;;-1.23;100.00
41596;BME280;27283;52.504;13.358;2023-03-03T08:47:05;102000.97;;;-1.40;100.00
41596;BME280;27283;52.504;13.358;2023-03-03T08:49:37;102007.88;;;-1.36;100.00
41596;BME280;27283;52.504;13.358;2023-03-03T08:52:09;102005.50;;;-1.20;100.00
41596;BME280;27283;52.504;13.358;2023-03-03T08:54:44;102009.44;;;-1.08;100.00
41596;BME280;27283;52.504;13.358;2023-03-03T08:57:16;102010.13;;;-0.81;100.00
41596;BME280;27283;52.504;13.358;2023-03-03T08:59:48;102006.41;;;-0.32;100.00
41596;BME280;27283;52.504;13.358;2023-03-03T09:02:20;102011.28;;;-0.44;100.00
41596;BME280;27283;52.504;13.358;2023-03-03T09:04:52;102010.59;;;-0.49;100.00
41596;BME280;27283;52.504;13.358;2023-03-03T09:07:24;102000.22;;;-0.76;100.00
41596;BME280;27283;52.504;13.358;2023-03-03T09:10:00;102002.22;;;-0.81;100.00
41596;BME280;27283;52.504;13.358;2023-03-03T09:12:35;101986.81;;;-0.49;100.00
41596;BME280;27283;52.504;13.358;2023-03-03T09:15:20;102001.63;;;-0.67;100.00
41596;BME280;27283;52.504;13.358;2023-03-03T09:17:57;102001.41;;;-1.05;100.00
41596;BME280;27283;52.504;13.358;2023-03-03T09:20:33;101993.22;;;-0.99;100.00
41596;BME280;27283;52.504;13.358;2023-03-03T09:26:26;101985.91;;;-0.70;100.00
41596;BME280;27283;52.504;13.358;2023-03-03T09:29:17;101992.63;;;-0.61;100.00
41596;BME280;27283;52.504;13.358;2023-03-03T09:31:53;101995.81;;;0.09;100.00
41596;BME280;27283;52.504;13.358;2023-03-03T09:34:37;101999.19;;;-0.08;100.00
41596;BME280;27283;52.504;13.358;2023-03-03T09:37:20;101995.81;;;-0.32;100.00
41596;BME280;27283;52.504;13.358;2023-03-03T09:39:55;102001.00;;;-0.51;100.00
41596;BME280;27283;52.504;13.358;2023-03-03T09:42:52;102001.88;;;-0.51;100.00
41596;BME280;27283;52.504;13.358;2023-03-03T09:45:49;102001.44;;;0.01;100.00
41596;BME280;27283;52.504;13.358;2023-03-03T09:48:43;102008.53;;;0.01;100.00
41596;BME280;27283;52.504;13.358;2023-03-03T09:51:39;102006.22;;;-0.07;100.00
41596;BME280;27283;52.504;13.358;2023-03-03T09:54:28;102005.22;;;-0.05;100.00
41596;BME280;27283;52.504;13.358;2023-03-03T09:57:13;101992.78;;;-0.44;100.00
41596;BME280;27283;52.504;13.358;2023-03-03T10:00:11;101995.94;;;-0.36;100.00
41596;BME280;27283;52.504;13.358;2023-03-03T10:02:59;102003.06;;;-0.58;100.00
41596;BME280;27283;52.504;13.358;2023-03-03T10:05:43;102000.59;;;-0.20;100.00
41596;BME280;27283;52.504;13.358;2023-03-03T10:08:29;102003.59;;;0.32;100.00
41596;BME280;27283;52.504;13.358;2023-03-03T10:11:15;102001.03;;;0.31;100.00
41596;BME280;27283;52.504;13.358;2023-03-03T10:13:59;102006.47;;;0.28;100.00
41596;BME280;27283;52.504;13.358;2023-03-03T10:16:48;102005.69;;;0.45;100.00
41596;BME280;27283;52.504;13.358;2023-03-03T10:19:37;101992.84;;;0.56;99.75
41596;BME280;27283;52.504;13.358;2023-03-03T10:22:20;101992.09;;;0.52;100.00
41596;BME280;27283;52.504;13.358;2023-03-03T10:25:13;102002.63;;;-0.06;100.00
41596;BME280;27283;52.504;13.358;2023-03-03T10:28:09;101991.38;;;0.30;100.00
41596;BME280;27283;52.504;13.358;2023-03-03T10:30:58;102000.13;;;-0.09;100.00
41596;BME280;27283;52.504;13.358;2023-03-03T10:33:51;101998.16;;;-0.04;100.00
41596;BME280;27283;52.504;13.358;2023-03-03T10:36:39;101992.31;;;-0.12;100.00
41596;BME280;27283;52.504;13.358;2023-03-03T10:42:32;101991.34;;;0.11;100.00
41596;BME280;27283;52.504;13.358;2023-03-03T10:45:38;101993.09;;;0.31;100.00
41596;BME280;27283;52.504;13.358;2023-03-03T10:51:24;101993.34;;;0.64;100.00
41596;BME280;27283;52.504;13.358;2023-03-03T10:54:18;102006.91;;;0.95;99.03
41596;BME280;27283;52.504;13.358;2023-03-03T10:56:57;101996.63;;;0.50;100.00
41596;BME280;27283;52.504;13.358;2023-03-03T10:59:53;102004.41;;;0.92;99.87
41596;BME280;27283;52.504;13.358;2023-03-03T11:02:40;102000.00;;;0.73;99.58
41596;BME280;27283;52.504;13.358;2023-03-03T11:05:25;102008.50;;;0.80;99.97
41596;BME280;27283;52.504;13.358;2023-03-03T11:08:07;101998.72;;;0.82;100.00
41596;BME280;27283;52.504;13.358;2023-03-03T11:10:52;102000.63;;;0.78;100.00
41596;BME280;27283;52.504;13.358;2023-03-03T11:13:32;101997.75;;;0.26;100.00
41596;BME280;27283;52.504;13.358;2023-03-03T11:16:21;101999.75;;;0.59;100.00
41596;BME280;27283;52.504;13.358;2023-03-03T11:19:06;101998.44;;;0.88;100.00
41596;BME280;27283;52.504;13.358;2023-03-03T11:21:47;101991.91;;;0.95;100.00
41596;BME280;27283;52.504;13.358;2023-03-03T11:24:40;101990.78;;;0.82;100.00
41596;BME280;27283;52.504;13.358;2023-03-03T11:27:30;101998.06;;;0.96;100.00
41596;BME280;27283;52.504;13.358;2023-03-03T11:30:23;101986.19;;;0.85;100.00
41596;BME280;27283;52.504;13.358;2023-03-03T11:33:06;101988.28;;;0.79;100.00
41596;BME280;27283;52.504;13.358;2023-03-03T11:35:43;101991.69;;;0.62;100.00
41596;BME280;27283;52.504;13.358;2023-03-03T11:38:32;101983.66;;;0.63;100.00
41596;BME280;27283;52.504;13.358;2023-03-03T11:41:18;101983.38;;;0.88;100.00
41596;BME280;27283;52.504;13.358;2023-03-03T11:43:57;101972.66;;;0.53;100.00
41596;BME280;27283;52.504;13.358;2023-03-03T11:46:36;101974.59;;;0.69;100.00
41596;BME280;27283;52.504;13.358;2023-03-03T11:49:14;101982.94;;;0.41;100.00
41596;BME280;27283;52.504;13.358;2023-03-03T11:51:56;101985.41;;;0.83;100.00
41596;BME280;27283;52.504;13.358;2023-03-03T11:54:40;101983.59;;;0.65;100.00
41596;BME280;27283;52.504;13.358;2023-03-03T11:57:21;101978.00;;;0.90;100.00
41596;BME280;27283;52.504;13.358;2023-03-03T12:00:03;101976.34;;;1.06;100.00
41596;BME280;27283;52.504;13.358;2023-03-03T12:02:57;101973.78;;;0.86;100.00
41596;BME280;27283;52.504;13.358;2023-03-03T12:05:45;101967.19;;;1.31;100.00
41596;BME280;27283;52.504;13.358;2023-03-03T12:08:29;101964.34;;;1.71;99.70
41596;BME280;27283;52.504;13.358;2023-03-03T12:11:14;101958.66;;;1.44;97.97
41596;BME280;27283;52.504;13.358;2023-03-03T12:13:59;101946.41;;;1.41;98.22
41596;BME280;27283;52.504;13.358;2023-03-03T12:16:43;101953.78;;;1.17;100.00
41596;BME280;27283;52.504;13.358;2023-03-03T12:19:31;101945.28;;;1.28;99.56
41596;BME280;27283;52.504;13.358;2023-03-03T12:22:30;101937.38;;;0.91;100.00
41596;BME280;27283;52.504;13.358;2023-03-03T12:25:18;101935.22;;;1.34;100.00
41596;BME280;27283;52.504;13.358;2023-03-03T12:28:01;101930.47;;;1.06;100.00
41596;BME280;27283;52.504;13.358;2023-03-03T12:31:05;101918.25;;;1.21;100.00
41596;BME280;27283;52.504;13.358;2023-03-03T12:33:51;101923.19;;;1.29;99.71
41596;BME280;27283;52.504;13.358;2023-03-03T12:36:35;101920.78;;;1.05;100.00
41596;BME280;27283;52.504;13.358;2023-03-03T12:39:23;101919.50;;;1.31;100.00
41596;BME280;27283;52.504;13.358;2023-03-03T12:42:11;101925.56;;;1.51;99.85
41596;BME280;27283;52.504;13.358;2023-03-03T12:44:54;101919.06;;;1.04;100.00
41596;BME280;27283;52.504;13.358;2023-03-03T12:47:37;101920.72;;;1.06;100.00
41596;BME280;27283;52.504;13.358;2023-03-03T12:50:29;101919.25;;;1.36;100.00
41596;BME280;27283;52.504;13.358;2023-03-03T12:53:16;101915.63;;;1.56;99.34
41596;BME280;27283;52.504;13.358;2023-03-03T12:55:58;101922.47;;;1.42;99.37
41596;BME280;27283;52.504;13.358;2023-03-03T12:58:43;101917.78;;;1.30;100.00
41596;BME280;27283;52.504;13.358;2023-03-03T13:01:34;101905.00;;;1.56;100.00
41596;BME280;27283;52.504;13.358;2023-03-03T13:04:30;101906.88;;;1.54;99.14
41596;BME280;27283;52.504;13.358;2023-03-03T13:07:10;101899.84;;;1.70;98.74
41596;BME280;27283;52.504;13.358;2023-03-03T13:09:59;101898.91;;;1.71;98.75
41596;BME280;27283;52.504;13.358;2023-03-03T13:12:38;101904.19;;;2.22;96.57
41596;BME280;27283;52.504;13.358;2023-03-03T13:15:20;101895.94;;;1.77;96.71
41596;BME280;27283;52.504;13.358;2023-03-03T13:18:17;101888.22;;;1.73;98.05
41596;BME280;27283;52.504;13.358;2023-03-03T13:20:59;101895.69;;;1.82;97.62
41596;BME280;27283;52.504;13.358;2023-03-03T13:23:47;101889.78;;;1.77;97.01
41596;BME280;27283;52.504;13.358;2023-03-03T13:26:26;101886.94;;;2.13;95.60
41596;BME280;27283;52.504;13.358;2023-03-03T13:29:08;101891.41;;;2.13;96.06
41596;BME280;27283;52.504;13.358;2023-03-03T13:31:47;101892.00;;;2.18;94.58
41596;BME280;27283;52.504;13.358;2023-03-03T13:34:31;101881.59;;;1.98;95.30
41596;BME280;27283;52.504;13.358;2023-03-03T13:37:14;101877.88;;;2.18;94.48
41596;BME280;27283;52.504;13.358;2023-03-03T13:39:58;101872.81;;;1.80;97.06
41596;BME280;27283;52.504;13.358;2023-03-03T13:42:36;101883.75;;;1.73;97.63
41596;BME280;27283;52.504;13.358;2023-03-03T13:45:17;101885.41;;;1.76;98.01